sensor_id;sensor_type;location;lat;lon;timestamp;P1;durP1;ratioP1;P2;durP2;ratioP2
59273;SDS011;45044;41.572;24.730;2022-10-16T00:01:17;19.13;;;12.55;;
59273;SDS011;45044;41.572;24.730;2022-10-16T00:03:46;18.52;;;12.00;;
59273;SDS011;45044;41.572;24.730;2022-10-16T00:06:14;16.73;;;11.43;;
59273;SDS011;45044;41.572;24.730;2022-10-16T00:08:42;16.63;;;11.35;;
59273;SDS011;45044;41.572;24.730;2022-10-16T00:13:44;17.65;;;12.10;;
59273;SDS011;45044;41.572;24.730;2022-10-16T00:16:12;14.65;;;11.07;;
59273;SDS011;45044;41.572;24.730;2022-10-16T00:18:40;15.00;;;11.23;;
59273;SDS011;45044;41.572;24.730;2022-10-16T00:21:15;13.20;;;9.23;;
59273;SDS011;45044;41.572;24.730;2022-10-16T00:23:44;13.02;;;9.63;;
59273;SDS011;45044;41.572;24.730;2022-10-16T00:26:13;12.60;;;8.90;;
59273;SDS011;45044;41.572;24.730;2022-10-16T00:28:42;30.60;;;12.07;;
59273;SDS011;45044;41.572;24.730;2022-10-16T00:31:09;22.92;;;13.57;;
59273;SDS011;45044;41.572;24.730;2022-10-16T00:33:38;27.63;;;16.38;;
59273;SDS011;45044;41.572;24.730;2022-10-16T00:36:07;17.98;;;10.93;;
59273;SDS011;45044;41.572;24.730;2022-10-16T00:38:36;17.65;;;11.25;;
59273;SDS011;45044;41.572;24.730;2022-10-16T00:41:04;15.70;;;10.35;;
59273;SDS011;45044;41.572;24.730;2022-10-16T00:43:46;14.68;;;9.40;;
59273;SDS011;45044;41.572;24.730;2022-10-16T00:46:19;11.20;;;8.10;;
59273;SDS011;45044;41.572;24.730;2022-10-16T00:51:25;11.02;;;8.65;;
59273;SDS011;45044;41.572;24.730;2022-10-16T00:53:59;13.10;;;8.02;;
59273;SDS011;45044;41.572;24.730;2022-10-16T00:56:26;19.85;;;12.55;;
59273;SDS011;45044;41.572;24.730;2022-10-16T00:58:53;23.52;;;13.20;;
59273;SDS011;45044;41.572;24.730;2022-10-16T01:01:20;19.42;;;12.50;;
59273;SDS011;45044;41.572;24.730;2022-10-16T01:03:47;20.30;;;10.55;;
59273;SDS011;45044;41.572;24.730;2022-10-16T01:06:18;17.00;;;10.93;;
59273;SDS011;45044;41.572;24.730;2022-10-16T01:14:32;27.67;;;16.08;;
59273;SDS011;45044;41.572;24.730;2022-10-16T01:17:03;24.23;;;13.50;;
59273;SDS011;45044;41.572;24.730;2022-10-16T01:19:43;28.83;;;14.85;;
59273;SDS011;45044;41.572;24.730;2022-10-16T01:22:19;17.60;;;12.98;;
59273;SDS011;45044;41.572;24.730;2022-10-16T01:24:48;18.35;;;11.98;;
59273;SDS011;45044;41.572;24.730;2022-10-16T01:27:26;18.40;;;11.77;;
59273;SDS011;45044;41.572;24.730;2022-10-16T01:29:59;21.95;;;14.00;;
59273;SDS011;45044;41.572;24.730;2022-10-16T01:35:05;43.00;;;21.73;;
59273;SDS011;45044;41.572;24.730;2022-10-16T01:37:39;16.83;;;11.52;;
59273;SDS011;45044;41.572;24.730;2022-10-16T01:40:11;14.30;;;9.70;;
59273;SDS011;45044;41.572;24.730;2022-10-16T01:42:46;19.67;;;11.63;;
59273;SDS011;45044;41.572;24.730;2022-10-16T01:45:19;16.33;;;10.73;;
59273;SDS011;45044;41.572;24.730;2022-10-16T01:47:48;20.35;;;12.05;;
59273;SDS011;45044;41.572;24.730;2022-10-16T01:50:17;23.73;;;13.63;;
59273;SDS011;45044;41.572;24.730;2022-10-16T01:52:47;15.45;;;10.95;;
59273;SDS011;45044;41.572;24.730;2022-10-16T01:55:19;15.82;;;9.55;;
59273;SDS011;45044;41.572;24.730;2022-10-16T01:57:56;17.58;;;11.20;;
59273;SDS011;45044;41.572;24.730;2022-10-16T02:00:26;15.18;;;9.68;;
59273;SDS011;45044;41.572;24.730;2022-10-16T02:02:53;15.85;;;10.00;;
59273;SDS011;45044;41.572;24.730;2022-10-16T02:05:26;13.70;;;8.63;;
59273;SDS011;45044;41.572;24.730;2022-10-16T02:07:57;28.90;;;17.05;;
59273;SDS011;45044;41.572;24.730;2022-10-16T02:10:28;26.95;;;15.57;;
59273;SDS011;45044;41.572;24.730;2022-10-16T02:15:44;17.83;;;10.68;;
59273;SDS011;45044;41.572;24.730;2022-10-16T02:18:11;22.13;;;12.70;;
59273;SDS011;45044;41.572;24.730;2022-10-16T02:20:53;37.80;;;19.87;;
59273;SDS011;45044;41.572;24.730;2022-10-16T02:24:08;22.23;;;14.48;;
59273;SDS011;45044;41.572;24.730;2022-10-16T02:26:25;15.20;;;10.43;;
59273;SDS011;45044;41.572;24.730;2022-10-16T02:28:58;18.02;;;11.52;;
59273;SDS011;45044;41.572;24.730;2022-10-16T02:31:31;17.63;;;11.48;;
59273;SDS011;45044;41.572;24.730;2022-10-16T02:34:02;15.45;;;10.57;;
59273;SDS011;45044;41.572;24.730;2022-10-16T02:36:32;22.02;;;12.70;;
59273;SDS011;45044;41.572;24.730;2022-10-16T02:39:01;15.93;;;10.68;;
59273;SDS011;45044;41.572;24.730;2022-10-16T02:41:35;42.97;;;22.23;;
59273;SDS011;45044;41.572;24.730;2022-10-16T02:44:02;60.53;;;32.55;;
59273;SDS011;45044;41.572;24.730;2022-10-16T02:46:29;34.47;;;19.35;;
59273;SDS011;45044;41.572;24.730;2022-10-16T02:48:55;28.20;;;16.88;;
59273;SDS011;45044;41.572;24.730;2022-10-16T02:51:22;27.83;;;15.77;;
59273;SDS011;45044;41.572;24.730;2022-10-16T02:53:49;25.15;;;14.55;;
59273;SDS011;45044;41.572;24.730;2022-10-16T02:56:15;22.90;;;15.35;;
59273;SDS011;45044;41.572;24.730;2022-10-16T02:58:42;23.98;;;15.05;;
59273;SDS011;45044;41.572;24.730;2022-10-16T03:01:09;24.00;;;16.10;;
59273;SDS011;45044;41.572;24.730;2022-10-16T03:03:36;23.13;;;14.65;;
59273;SDS011;45044;41.572;24.730;2022-10-16T03:06:02;15.68;;;11.55;;
59273;SDS011;45044;41.572;24.730;2022-10-16T03:08:29;15.65;;;11.27;;
59273;SDS011;45044;41.572;24.730;2022-10-16T03:10:56;16.33;;;12.27;;
59273;SDS011;45044;41.572;24.730;2022-10-16T03:13:22;26.50;;;15.02;;
59273;SDS011;45044;41.572;24.730;2022-10-16T03:15:49;53.38;;;24.10;;
59273;SDS011;45044;41.572;24.730;2022-10-16T03:18:16;46.33;;;22.33;;
59273;SDS011;45044;41.572;24.730;2022-10-16T03:20:44;42.35;;;21.33;;
59273;SDS011;45044;41.572;24.730;2022-10-16T03:23:10;47.47;;;22.70;;
59273;SDS011;45044;41.572;24.730;2022-10-16T03:25:38;22.48;;;13.93;;
59273;SDS011;45044;41.572;24.730;2022-10-16T03:28:05;14.35;;;9.45;;
59273;SDS011;45044;41.572;24.730;2022-10-16T03:30:32;16.67;;;11.60;;
59273;SDS011;45044;41.572;24.730;2022-10-16T03:32:58;18.13;;;10.37;;
59273;SDS011;45044;41.572;24.730;2022-10-16T03:35:25;33.40;;;13.15;;
59273;SDS011;45044;41.572;24.730;2022-10-16T03:37:52;20.35;;;12.05;;
59273;SDS011;45044;41.572;24.730;2022-10-16T03:40:19;20.38;;;12.07;;
59273;SDS011;45044;41.572;24.730;2022-10-16T03:42:46;19.30;;;13.03;;
59273;SDS011;45044;41.572;24.730;2022-10-16T03:45:13;26.20;;;14.90;;
59273;SDS011;45044;41.572;24.730;2022-10-16T03:47:40;44.70;;;22.98;;
59273;SDS011;45044;41.572;24.730;2022-10-16T03:50:07;30.70;;;15.95;;
59273;SDS011;45044;41.572;24.730;2022-10-16T03:52:36;21.95;;;14.10;;
59273;SDS011;45044;41.572;24.730;2022-10-16T03:55:03;18.77;;;12.35;;
59273;SDS011;45044;41.572;24.730;2022-10-16T03:57:30;34.20;;;17.63;;
59273;SDS011;45044;41.572;24.730;2022-10-16T03:59:57;28.63;;;16.50;;
59273;SDS011;45044;41.572;24.730;2022-10-16T04:02:23;33.40;;;20.55;;
59273;SDS011;45044;41.572;24.730;2022-10-16T04:04:50;34.78;;;19.20;;
59273;SDS011;45044;41.572;24.730;2022-10-16T04:07:17;32.20;;;17.02;;
59273;SDS011;45044;41.572;24.730;2022-10-16T04:09:44;35.03;;;18.75;;
59273;SDS011;45044;41.572;24.730;2022-10-16T04:12:10;27.00;;;16.50;;
59273;SDS011;45044;41.572;24.730;2022-10-16T04:14:37;27.23;;;16.73;;
59273;SDS011;45044;41.572;24.730;2022-10-16T04:17:04;17.38;;;11.43;;
59273;SDS011;45044;41.572;24.730;2022-10-16T04:19:30;17.50;;;11.63;;
59273;SDS011;45044;41.572;24.730;2022-10-16T04:21:57;15.95;;;11.30;;
59273;SDS011;45044;41.572;24.730;2022-10-16T04:24:24;13.77;;;10.50;;
59273;SDS011;45044;41.572;24.730;2022-10-16T04:26:50;15.70;;;10.73;;
59273;SDS011;45044;41.572;24.730;2022-10-16T04:29:17;28.23;;;16.87;;
59273;SDS011;45044;41.572;24.730;2022-10-16T04:31:44;36.17;;;21.07;;
59273;SDS011;45044;41.572;24.730;2022-10-16T04:34:11;45.57;;;23.77;;
59273;SDS011;45044;41.572;24.730;2022-10-16T04:36:38;31.77;;;19.17;;
59273;SDS011;45044;41.572;24.730;2022-10-16T04:39:04;17.77;;;12.83;;
59273;SDS011;45044;41.572;24.730;2022-10-16T04:41:31;21.40;;;14.90;;
59273;SDS011;45044;41.572;24.730;2022-10-16T04:43:58;20.23;;;13.77;;
59273;SDS011;45044;41.572;24.730;2022-10-16T04:46:24;22.37;;;14.60;;
59273;SDS011;45044;41.572;24.730;2022-10-16T04:48:51;26.87;;;18.33;;
59273;SDS011;45044;41.572;24.730;2022-10-16T04:51:18;29.87;;;18.53;;
59273;SDS011;45044;41.572;24.730;2022-10-16T04:53:45;26.20;;;16.87;;
59273;SDS011;45044;41.572;24.730;2022-10-16T04:56:11;27.87;;;19.80;;
59273;SDS011;45044;41.572;24.730;2022-10-16T04:58:38;54.13;;;33.00;;
59273;SDS011;45044;41.572;24.730;2022-10-16T05:01:05;52.73;;;31.83;;
59273;SDS011;45044;41.572;24.730;2022-10-16T05:03:31;34.53;;;22.53;;
59273;SDS011;45044;41.572;24.730;2022-10-16T05:05:58;36.17;;;23.63;;
59273;SDS011;45044;41.572;24.730;2022-10-16T05:08:25;28.63;;;19.63;;
59273;SDS011;45044;41.572;24.730;2022-10-16T05:10:52;31.00;;;21.20;;
59273;SDS011;45044;41.572;24.730;2022-10-16T05:13:18;27.13;;;20.00;;
59273;SDS011;45044;41.572;24.730;2022-10-16T05:15:48;29.60;;;21.43;;
59273;SDS011;45044;41.572;24.730;2022-10-16T05:18:15;31.40;;;21.57;;
59273;SDS011;45044;41.572;24.730;2022-10-16T05:20:43;27.87;;;20.50;;
59273;SDS011;45044;41.572;24.730;2022-10-16T05:23:10;31.07;;;21.70;;
59273;SDS011;45044;41.572;24.730;2022-10-16T05:25:38;32.13;;;22.77;;
59273;SDS011;45044;41.572;24.730;2022-10-16T05:28:05;39.50;;;23.53;;
59273;SDS011;45044;41.572;24.730;2022-10-16T05:30:32;45.10;;;24.97;;
59273;SDS011;45044;41.572;24.730;2022-10-16T05:32:59;44.87;;;24.07;;
59273;SDS011;45044;41.572;24.730;2022-10-16T05:35:25;39.03;;;23.73;;
59273;SDS011;45044;41.572;24.730;2022-10-16T05:37:52;35.42;;;23.50;;
59273;SDS011;45044;41.572;24.730;2022-10-16T05:40:25;36.07;;;21.87;;
59273;SDS011;45044;41.572;24.730;2022-10-16T05:42:54;33.47;;;21.13;;
59273;SDS011;45044;41.572;24.730;2022-10-16T05:45:22;35.57;;;22.40;;
59273;SDS011;45044;41.572;24.730;2022-10-16T05:47:49;37.27;;;25.07;;
59273;SDS011;45044;41.572;24.730;2022-10-16T05:50:15;42.23;;;25.70;;
59273;SDS011;45044;41.572;24.730;2022-10-16T05:52:42;37.27;;;23.87;;
59273;SDS011;45044;41.572;24.730;2022-10-16T05:55:09;49.40;;;29.57;;
59273;SDS011;45044;41.572;24.730;2022-10-16T05:57:36;49.15;;;30.27;;
59273;SDS011;45044;41.572;24.730;2022-10-16T06:00:03;45.08;;;29.67;;
59273;SDS011;45044;41.572;24.730;2022-10-16T06:02:31;38.05;;;25.65;;
59273;SDS011;45044;41.572;24.730;2022-10-16T06:04:57;35.67;;;24.23;;
59273;SDS011;45044;41.572;24.730;2022-10-16T06:07:24;43.38;;;27.42;;
59273;SDS011;45044;41.572;24.730;2022-10-16T06:09:51;34.65;;;25.75;;
59273;SDS011;45044;41.572;24.730;2022-10-16T06:12:19;34.72;;;24.88;;
59273;SDS011;45044;41.572;24.730;2022-10-16T06:14:46;33.25;;;23.80;;
59273;SDS011;45044;41.572;24.730;2022-10-16T06:17:13;29.33;;;22.25;;
59273;SDS011;45044;41.572;24.730;2022-10-16T06:19:40;30.45;;;23.17;;
59273;SDS011;45044;41.572;24.730;2022-10-16T06:22:07;25.92;;;20.85;;
59273;SDS011;45044;41.572;24.730;2022-10-16T06:24:34;28.50;;;21.17;;
59273;SDS011;45044;41.572;24.730;2022-10-16T06:27:00;28.05;;;22.45;;
59273;SDS011;45044;41.572;24.730;2022-10-16T06:29:27;27.08;;;23.20;;
59273;SDS011;45044;41.572;24.730;2022-10-16T06:31:54;26.63;;;21.52;;
59273;SDS011;45044;41.572;24.730;2022-10-16T06:34:21;29.15;;;22.77;;
59273;SDS011;45044;41.572;24.730;2022-10-16T06:36:47;24.95;;;22.30;;
59273;SDS011;45044;41.572;24.730;2022-10-16T06:39:14;24.35;;;19.38;;
59273;SDS011;45044;41.572;24.730;2022-10-16T06:41:41;23.70;;;21.17;;
59273;SDS011;45044;41.572;24.730;2022-10-16T06:44:08;24.20;;;20.20;;
59273;SDS011;45044;41.572;24.730;2022-10-16T06:46:35;25.08;;;20.17;;
59273;SDS011;45044;41.572;24.730;2022-10-16T06:49:01;23.73;;;19.58;;
59273;SDS011;45044;41.572;24.730;2022-10-16T06:51:28;25.15;;;20.70;;
59273;SDS011;45044;41.572;24.730;2022-10-16T06:53:56;24.05;;;20.30;;
59273;SDS011;45044;41.572;24.730;2022-10-16T06:56:30;25.02;;;20.17;;
59273;SDS011;45044;41.572;24.730;2022-10-16T06:58:58;25.60;;;20.90;;
59273;SDS011;45044;41.572;24.730;2022-10-16T07:01:26;24.80;;;21.35;;
59273;SDS011;45044;41.572;24.730;2022-10-16T07:03:53;24.50;;;20.77;;
59273;SDS011;45044;41.572;24.730;2022-10-16T07:06:22;22.67;;;20.10;;
59273;SDS011;45044;41.572;24.730;2022-10-16T07:08:51;21.15;;;18.92;;
59273;SDS011;45044;41.572;24.730;2022-10-16T07:11:19;20.63;;;18.35;;
59273;SDS011;45044;41.572;24.730;2022-10-16T07:13:48;18.50;;;16.30;;
59273;SDS011;45044;41.572;24.730;2022-10-16T07:16:25;16.95;;;15.15;;
59273;SDS011;45044;41.572;24.730;2022-10-16T07:18:54;15.32;;;13.35;;
59273;SDS011;45044;41.572;24.730;2022-10-16T07:24:01;16.55;;;14.77;;
59273;SDS011;45044;41.572;24.730;2022-10-16T07:26:29;15.63;;;13.50;;
59273;SDS011;45044;41.572;24.730;2022-10-16T07:28:58;14.45;;;12.85;;
59273;SDS011;45044;41.572;24.730;2022-10-16T07:31:26;13.23;;;11.93;;
59273;SDS011;45044;41.572;24.730;2022-10-16T07:33:53;13.38;;;11.60;;
59273;SDS011;45044;41.572;24.730;2022-10-16T07:36:21;12.88;;;11.45;;
59273;SDS011;45044;41.572;24.730;2022-10-16T07:38:48;13.73;;;9.70;;
59273;SDS011;45044;41.572;24.730;2022-10-16T07:41:19;11.18;;;10.02;;
59273;SDS011;45044;41.572;24.730;2022-10-16T07:43:50;9.93;;;8.43;;
59273;SDS011;45044;41.572;24.730;2022-10-16T07:46:18;11.30;;;8.95;;
59273;SDS011;45044;41.572;24.730;2022-10-16T07:48:46;7.72;;;5.82;;
59273;SDS011;45044;41.572;24.730;2022-10-16T07:51:15;7.13;;;5.20;;
59273;SDS011;45044;41.572;24.730;2022-10-16T07:53:46;7.40;;;4.93;;
59273;SDS011;45044;41.572;24.730;2022-10-16T07:56:14;6.95;;;4.82;;
59273;SDS011;45044;41.572;24.730;2022-10-16T07:58:41;6.97;;;4.57;;
59273;SDS011;45044;41.572;24.730;2022-10-16T08:01:09;8.43;;;4.95;;
59273;SDS011;45044;41.572;24.730;2022-10-16T08:03:38;6.60;;;4.60;;
59273;SDS011;45044;41.572;24.730;2022-10-16T08:06:07;7.05;;;3.95;;
59273;SDS011;45044;41.572;24.730;2022-10-16T08:08:34;5.80;;;3.90;;
59273;SDS011;45044;41.572;24.730;2022-10-16T08:11:01;7.10;;;4.50;;
59273;SDS011;45044;41.572;24.730;2022-10-16T08:13:30;7.38;;;4.22;;
59273;SDS011;45044;41.572;24.730;2022-10-16T08:15:57;6.20;;;4.35;;
59273;SDS011;45044;41.572;24.730;2022-10-16T08:18:24;5.15;;;3.60;;
59273;SDS011;45044;41.572;24.730;2022-10-16T08:20:55;5.90;;;4.00;;
59273;SDS011;45044;41.572;24.730;2022-10-16T08:23:24;6.00;;;4.38;;
59273;SDS011;45044;41.572;24.730;2022-10-16T08:25:53;9.85;;;5.18;;
59273;SDS011;45044;41.572;24.730;2022-10-16T08:28:20;8.63;;;5.20;;
59273;SDS011;45044;41.572;24.730;2022-10-16T08:30:47;6.22;;;5.15;;
59273;SDS011;45044;41.572;24.730;2022-10-16T08:33:14;6.13;;;4.00;;
59273;SDS011;45044;41.572;24.730;2022-10-16T08:35:41;6.65;;;4.68;;
59273;SDS011;45044;41.572;24.730;2022-10-16T08:38:08;6.47;;;4.07;;
59273;SDS011;45044;41.572;24.730;2022-10-16T08:40:36;6.22;;;3.70;;
59273;SDS011;45044;41.572;24.730;2022-10-16T08:43:07;7.28;;;4.57;;
59273;SDS011;45044;41.572;24.730;2022-10-16T08:48:34;7.00;;;4.43;;
59273;SDS011;45044;41.572;24.730;2022-10-16T08:52:04;6.97;;;4.70;;
59273;SDS011;45044;41.572;24.730;2022-10-16T08:54:43;7.32;;;4.07;;
59273;SDS011;45044;41.572;24.730;2022-10-16T08:57:19;6.93;;;4.07;;
59273;SDS011;45044;41.572;24.730;2022-10-16T09:02:33;7.32;;;3.72;;
59273;SDS011;45044;41.572;24.730;2022-10-16T09:13:36;4.78;;;3.10;;
59273;SDS011;45044;41.572;24.730;2022-10-16T09:16:27;4.95;;;3.05;;
59273;SDS011;45044;41.572;24.730;2022-10-16T09:19:05;4.43;;;3.03;;
59273;SDS011;45044;41.572;24.730;2022-10-16T09:21:42;4.50;;;2.83;;
59273;SDS011;45044;41.572;24.730;2022-10-16T09:24:15;6.38;;;3.13;;
59273;SDS011;45044;41.572;24.730;2022-10-16T09:26:45;3.95;;;2.78;;
59273;SDS011;45044;41.572;24.730;2022-10-16T09:29:13;4.43;;;2.80;;
59273;SDS011;45044;41.572;24.730;2022-10-16T09:31:41;5.03;;;3.08;;
59273;SDS011;45044;41.572;24.730;2022-10-16T09:34:23;5.18;;;3.05;;
59273;SDS011;45044;41.572;24.730;2022-10-16T09:36:56;4.20;;;3.00;;
59273;SDS011;45044;41.572;24.730;2022-10-16T09:39:25;5.40;;;2.90;;
59273;SDS011;45044;41.572;24.730;2022-10-16T09:41:51;5.97;;;3.20;;
59273;SDS011;45044;41.572;24.730;2022-10-16T09:44:28;4.18;;;3.00;;
59273;SDS011;45044;41.572;24.730;2022-10-16T09:47:03;4.13;;;2.75;;
59273;SDS011;45044;41.572;24.730;2022-10-16T09:49:54;4.57;;;2.90;;
59273;SDS011;45044;41.572;24.730;2022-10-16T09:52:32;4.90;;;3.53;;
59273;SDS011;45044;41.572;24.730;2022-10-16T09:55:09;5.80;;;3.60;;
59273;SDS011;45044;41.572;24.730;2022-10-16T09:57:50;5.95;;;3.00;;
59273;SDS011;45044;41.572;24.730;2022-10-16T10:00:17;3.15;;;2.53;;
59273;SDS011;45044;41.572;24.730;2022-10-16T10:02:45;6.05;;;3.00;;
59273;SDS011;45044;41.572;24.730;2022-10-16T10:05:23;3.85;;;2.60;;
59273;SDS011;45044;41.572;24.730;2022-10-16T10:07:58;3.33;;;2.70;;
59273;SDS011;45044;41.572;24.730;2022-10-16T10:10:30;4.97;;;3.22;;
59273;SDS011;45044;41.572;24.730;2022-10-16T10:12:59;5.32;;;3.10;;
59273;SDS011;45044;41.572;24.730;2022-10-16T10:15:27;4.68;;;3.08;;
59273;SDS011;45044;41.572;24.730;2022-10-16T10:18:17;5.05;;;3.33;;
59273;SDS011;45044;41.572;24.730;2022-10-16T10:20:45;4.20;;;3.10;;
59273;SDS011;45044;41.572;24.730;2022-10-16T10:23:24;5.05;;;2.58;;
59273;SDS011;45044;41.572;24.730;2022-10-16T10:29:06;5.22;;;3.15;;
59273;SDS011;45044;41.572;24.730;2022-10-16T10:39:24;4.72;;;2.78;;
59273;SDS011;45044;41.572;24.730;2022-10-16T10:42:02;4.00;;;2.58;;
59273;SDS011;45044;41.572;24.730;2022-10-16T11:01:26;4.82;;;3.20;;
59273;SDS011;45044;41.572;24.730;2022-10-16T11:06:59;6.25;;;3.85;;
59273;SDS011;45044;41.572;24.730;2022-10-16T11:09:30;4.78;;;2.70;;
59273;SDS011;45044;41.572;24.730;2022-10-16T11:12:14;6.07;;;3.10;;
59273;SDS011;45044;41.572;24.730;2022-10-16T11:17:23;4.95;;;3.05;;
59273;SDS011;45044;41.572;24.730;2022-10-16T11:19:58;4.40;;;3.05;;
59273;SDS011;45044;41.572;24.730;2022-10-16T11:22:50;4.82;;;3.03;;
59273;SDS011;45044;41.572;24.730;2022-10-16T11:36:05;3.90;;;2.58;;
59273;SDS011;45044;41.572;24.730;2022-10-16T11:38:51;8.55;;;5.22;;
59273;SDS011;45044;41.572;24.730;2022-10-16T11:41:35;6.85;;;4.53;;
59273;SDS011;45044;41.572;24.730;2022-10-16T11:55:26;5.20;;;3.10;;
59273;SDS011;45044;41.572;24.730;2022-10-16T11:58:00;5.90;;;3.42;;
59273;SDS011;45044;41.572;24.730;2022-10-16T12:00:47;6.22;;;3.08;;
59273;SDS011;45044;41.572;24.730;2022-10-16T12:03:33;5.60;;;3.03;;
59273;SDS011;45044;41.572;24.730;2022-10-16T12:08:39;4.20;;;2.63;;
59273;SDS011;45044;41.572;24.730;2022-10-16T12:11:08;5.50;;;3.28;;
59273;SDS011;45044;41.572;24.730;2022-10-16T12:13:46;4.43;;;2.83;;
59273;SDS011;45044;41.572;24.730;2022-10-16T12:18:42;5.72;;;3.00;;
59273;SDS011;45044;41.572;24.730;2022-10-16T12:21:11;5.22;;;2.90;;
59273;SDS011;45044;41.572;24.730;2022-10-16T12:23:49;4.82;;;2.85;;
59273;SDS011;45044;41.572;24.730;2022-10-16T12:26:24;5.60;;;3.05;;
59273;SDS011;45044;41.572;24.730;2022-10-16T12:29:09;7.55;;;3.40;;
59273;SDS011;45044;41.572;24.730;2022-10-16T12:31:44;5.25;;;3.03;;
59273;SDS011;45044;41.572;24.730;2022-10-16T12:34:36;6.13;;;3.25;;
59273;SDS011;45044;41.572;24.730;2022-10-16T12:37:14;5.47;;;3.10;;
59273;SDS011;45044;41.572;24.730;2022-10-16T12:39:50;5.68;;;2.95;;
59273;SDS011;45044;41.572;24.730;2022-10-16T12:42:21;5.50;;;3.00;;
59273;SDS011;45044;41.572;24.730;2022-10-16T12:44:55;3.65;;;2.70;;
59273;SDS011;45044;41.572;24.730;2022-10-16T12:49:57;5.95;;;3.50;;
59273;SDS011;45044;41.572;24.730;2022-10-16T12:52:36;5.40;;;2.90;;
59273;SDS011;45044;41.572;24.730;2022-10-16T12:55:06;6.45;;;3.00;;
59273;SDS011;45044;41.572;24.730;2022-10-16T13:25:31;6.70;;;4.18;;
59273;SDS011;45044;41.572;24.730;2022-10-16T13:28:09;5.97;;;3.97;;
59273;SDS011;45044;41.572;24.730;2022-10-16T13:30:39;19.35;;;13.43;;
59273;SDS011;45044;41.572;24.730;2022-10-16T13:36:01;7.68;;;5.55;;
59273;SDS011;45044;41.572;24.730;2022-10-16T13:38:30;7.72;;;4.95;;
59273;SDS011;45044;41.572;24.730;2022-10-16T13:40:59;8.20;;;5.20;;
59273;SDS011;45044;41.572;24.730;2022-10-16T13:43:48;8.23;;;5.63;;
59273;SDS011;45044;41.572;24.730;2022-10-16T13:46:18;23.38;;;14.15;;
59273;SDS011;45044;41.572;24.730;2022-10-16T13:49:00;13.50;;;8.27;;
59273;SDS011;45044;41.572;24.730;2022-10-16T13:51:29;5.15;;;3.60;;
59273;SDS011;45044;41.572;24.730;2022-10-16T13:53:57;6.05;;;3.40;;
59273;SDS011;45044;41.572;24.730;2022-10-16T13:56:26;10.73;;;5.70;;
59273;SDS011;45044;41.572;24.730;2022-10-16T13:58:58;43.03;;;24.17;;
59273;SDS011;45044;41.572;24.730;2022-10-16T14:02:05;9.68;;;5.65;;
59273;SDS011;45044;41.572;24.730;2022-10-16T14:04:23;18.50;;;10.98;;
59273;SDS011;45044;41.572;24.730;2022-10-16T14:06:51;6.35;;;3.33;;
59273;SDS011;45044;41.572;24.730;2022-10-16T14:09:22;7.03;;;4.53;;
59273;SDS011;45044;41.572;24.730;2022-10-16T14:12:02;30.97;;;16.80;;
59273;SDS011;45044;41.572;24.730;2022-10-16T14:14:55;35.20;;;20.65;;
59273;SDS011;45044;41.572;24.730;2022-10-16T14:17:23;76.32;;;42.08;;
59273;SDS011;45044;41.572;24.730;2022-10-16T14:19:56;12.60;;;7.70;;
59273;SDS011;45044;41.572;24.730;2022-10-16T14:22:33;32.75;;;19.90;;
59273;SDS011;45044;41.572;24.730;2022-10-16T14:27:55;58.30;;;31.10;;
59273;SDS011;45044;41.572;24.730;2022-10-16T14:30:27;17.85;;;9.25;;
59273;SDS011;45044;41.572;24.730;2022-10-16T14:32:59;8.60;;;5.03;;
59273;SDS011;45044;41.572;24.730;2022-10-16T14:35:32;9.45;;;4.88;;
59273;SDS011;45044;41.572;24.730;2022-10-16T14:38:01;14.13;;;8.23;;
59273;SDS011;45044;41.572;24.730;2022-10-16T14:40:30;13.13;;;6.80;;
59273;SDS011;45044;41.572;24.730;2022-10-16T14:42:59;19.13;;;11.02;;
59273;SDS011;45044;41.572;24.730;2022-10-16T14:45:28;9.65;;;6.10;;
59273;SDS011;45044;41.572;24.730;2022-10-16T14:47:58;12.43;;;5.70;;
59273;SDS011;45044;41.572;24.730;2022-10-16T14:50:27;52.42;;;29.10;;
59273;SDS011;45044;41.572;24.730;2022-10-16T14:52:54;19.67;;;11.10;;
59273;SDS011;45044;41.572;24.730;2022-10-16T14:55:21;25.23;;;15.23;;
59273;SDS011;45044;41.572;24.730;2022-10-16T14:57:53;23.90;;;14.70;;
59273;SDS011;45044;41.572;24.730;2022-10-16T15:00:25;14.30;;;10.02;;
59273;SDS011;45044;41.572;24.730;2022-10-16T15:02:52;17.23;;;11.35;;
59273;SDS011;45044;41.572;24.730;2022-10-16T15:05:20;18.85;;;12.15;;
59273;SDS011;45044;41.572;24.730;2022-10-16T15:07:54;13.68;;;8.50;;
59273;SDS011;45044;41.572;24.730;2022-10-16T15:10:22;47.95;;;31.35;;
59273;SDS011;45044;41.572;24.730;2022-10-16T15:12:50;24.90;;;18.08;;
59273;SDS011;45044;41.572;24.730;2022-10-16T15:17:47;11.73;;;8.60;;
59273;SDS011;45044;41.572;24.730;2022-10-16T15:20:14;14.30;;;10.75;;
59273;SDS011;45044;41.572;24.730;2022-10-16T15:22:40;14.73;;;11.02;;
59273;SDS011;45044;41.572;24.730;2022-10-16T15:25:27;18.65;;;15.07;;
59273;SDS011;45044;41.572;24.730;2022-10-16T15:28:01;21.38;;;14.75;;
59273;SDS011;45044;41.572;24.730;2022-10-16T15:30:29;19.92;;;15.25;;
59273;SDS011;45044;41.572;24.730;2022-10-16T15:32:56;23.17;;;16.95;;
59273;SDS011;45044;41.572;24.730;2022-10-16T15:35:24;20.77;;;16.88;;
59273;SDS011;45044;41.572;24.730;2022-10-16T15:37:51;22.25;;;16.77;;
59273;SDS011;45044;41.572;24.730;2022-10-16T15:40:18;14.82;;;12.10;;
59273;SDS011;45044;41.572;24.730;2022-10-16T15:42:46;19.90;;;12.88;;
59273;SDS011;45044;41.572;24.730;2022-10-16T15:45:13;15.80;;;12.55;;
59273;SDS011;45044;41.572;24.730;2022-10-16T15:47:41;17.80;;;14.07;;
59273;SDS011;45044;41.572;24.730;2022-10-16T15:50:11;62.67;;;41.83;;
59273;SDS011;45044;41.572;24.730;2022-10-16T15:52:40;31.83;;;19.90;;
59273;SDS011;45044;41.572;24.730;2022-10-16T15:55:10;34.08;;;23.15;;
59273;SDS011;45044;41.572;24.730;2022-10-16T15:57:38;31.98;;;20.92;;
59273;SDS011;45044;41.572;24.730;2022-10-16T16:00:07;36.50;;;27.17;;
59273;SDS011;45044;41.572;24.730;2022-10-16T16:02:36;43.83;;;31.23;;
59273;SDS011;45044;41.572;24.730;2022-10-16T16:05:03;40.90;;;29.50;;
59273;SDS011;45044;41.572;24.730;2022-10-16T16:07:34;32.92;;;25.30;;
59273;SDS011;45044;41.572;24.730;2022-10-16T16:10:03;31.27;;;20.95;;
59273;SDS011;45044;41.572;24.730;2022-10-16T16:12:31;44.50;;;31.02;;
59273;SDS011;45044;41.572;24.730;2022-10-16T16:14:58;56.90;;;36.60;;
59273;SDS011;45044;41.572;24.730;2022-10-16T16:17:31;69.18;;;44.05;;
59273;SDS011;45044;41.572;24.730;2022-10-16T16:19:58;61.72;;;44.40;;
59273;SDS011;45044;41.572;24.730;2022-10-16T16:22:25;42.63;;;35.78;;
59273;SDS011;45044;41.572;24.730;2022-10-16T16:24:53;36.85;;;28.15;;
59273;SDS011;45044;41.572;24.730;2022-10-16T16:27:20;31.83;;;25.52;;
59273;SDS011;45044;41.572;24.730;2022-10-16T16:29:47;37.72;;;29.52;;
59273;SDS011;45044;41.572;24.730;2022-10-16T16:32:14;36.60;;;29.65;;
59273;SDS011;45044;41.572;24.730;2022-10-16T16:34:40;43.17;;;35.28;;
59273;SDS011;45044;41.572;24.730;2022-10-16T16:37:07;58.83;;;43.00;;
59273;SDS011;45044;41.572;24.730;2022-10-16T16:39:34;77.95;;;55.60;;
59273;SDS011;45044;41.572;24.730;2022-10-16T16:42:01;61.78;;;45.83;;
59273;SDS011;45044;41.572;24.730;2022-10-16T16:44:30;78.40;;;57.80;;
59273;SDS011;45044;41.572;24.730;2022-10-16T16:46:57;61.25;;;48.03;;
59273;SDS011;45044;41.572;24.730;2022-10-16T16:49:24;50.55;;;42.08;;